createdAt,value
2022-07-29T00:01:32.608Z,101375.72
2022-07-29T00:04:00.863Z,101382.97
2022-07-29T00:06:29.136Z,101377.44
2022-07-29T00:08:57.318Z,101381.47
2022-07-29T00:11:26.800Z,101389.00
2022-07-29T00:13:54.940Z,101377.59
2022-07-29T00:16:24.071Z,101380.09
2022-07-29T00:18:52.590Z,101378.28
2022-07-29T00:21:20.764Z,101379.84
2022-07-29T00:23:48.909Z,101378.91
2022-07-29T00:26:17.133Z,101369.50
2022-07-29T00:28:46.680Z,101373.75
2022-07-29T00:31:15.042Z,101369.19
2022-07-29T00:33:43.339Z,101368.06
2022-07-29T00:36:10.547Z,101362.84
2022-07-29T00:38:38.685Z,101372.72
2022-07-29T00:41:06.862Z,101371.56
2022-07-29T00:43:35.008Z,101365.97
2022-07-29T00:46:04.607Z,101374.91
2022-07-29T00:48:33.265Z,101368.91
2022-07-29T00:51:04.027Z,101356.06
2022-07-29T00:53:34.058Z,101360.91
2022-07-29T00:56:02.383Z,101365.63
2022-07-29T00:58:30.655Z,101359.97
2022-07-29T01:01:00.015Z,101365.22
2022-07-29T01:03:29.576Z,101355.09
2022-07-29T01:05:58.177Z,101361.50
2022-07-29T01:08:26.539Z,101365.22
2022-07-29T01:10:56.017Z,101365.66
2022-07-29T01:13:24.876Z,101354.25
2022-07-29T01:15:58.486Z,101358.72
2022-07-29T01:18:35.578Z,101348.16
2022-07-29T01:21:26.685Z,101338.25
2022-07-29T01:24:10.957Z,101341.97
2022-07-29T01:26:47.550Z,101332.63
2022-07-29T01:29:26.590Z,101328.34
2022-07-29T01:32:03.499Z,101328.53
2022-07-29T01:34:40.111Z,101333.97
2022-07-29T01:37:14.696Z,101325.69
2022-07-29T01:39:46.691Z,101329.59
2022-07-29T01:42:22.052Z,101325.50
2022-07-29T01:44:57.885Z,101327.13
2022-07-29T01:47:33.650Z,101320.00
2022-07-29T01:50:09.503Z,101314.06
2022-07-29T01:52:41.624Z,101314.09
2022-07-29T01:55:16.009Z,101309.34
2022-07-29T01:57:46.483Z,101306.25
2022-07-29T02:00:18.078Z,101296.19
2022-07-29T02:02:49.415Z,101293.63
2022-07-29T02:05:20.726Z,101289.22
2022-07-29T02:07:51.055Z,101285.56
2022-07-29T02:10:26.084Z,101284.47
2022-07-29T02:12:56.973Z,101277.84
2022-07-29T02:15:29.177Z,101274.28
2022-07-29T02:18:01.938Z,101270.53
2022-07-29T02:20:31.914Z,101270.44
2022-07-29T02:23:01.469Z,101271.22
2022-07-29T02:25:36.989Z,101264.81
2022-07-29T02:28:08.452Z,101271.56
2022-07-29T02:30:42.319Z,101269.00
2022-07-29T02:33:14.068Z,101266.28
2022-07-29T02:35:43.814Z,101277.75
2022-07-29T02:38:33.104Z,101272.41
2022-07-29T02:41:03.145Z,101281.59
2022-07-29T02:43:33.208Z,101291.00
2022-07-29T02:46:04.588Z,101278.66
2022-07-29T02:48:47.380Z,101287.84
2022-07-29T02:51:41.427Z,101285.78
2022-07-29T02:54:12.519Z,101291.94
2022-07-29T02:56:42.528Z,101295.19
2022-07-29T02:59:15.737Z,101301.19
2022-07-29T03:01:47.224Z,101293.44
2022-07-29T03:04:17.655Z,101295.34
2022-07-29T03:06:46.810Z,101289.84
2022-07-29T03:09:15.975Z,101288.16
2022-07-29T03:11:50.412Z,101282.41
2022-07-29T03:14:21.513Z,101279.38
2022-07-29T03:16:52.597Z,101279.59
2022-07-29T03:19:22.105Z,101277.13
2022-07-29T03:21:50.620Z,101279.78
2022-07-29T03:24:31.849Z,101283.09
2022-07-29T03:27:00.532Z,101286.63
2022-07-29T03:29:33.690Z,101284.94
2022-07-29T03:32:08.426Z,101278.66
2022-07-29T03:34:38.834Z,101275.31
2022-07-29T03:37:08.540Z,101279.38
2022-07-29T03:39:41.218Z,101279.22
2022-07-29T03:42:12.460Z,101283.78
2022-07-29T03:44:43.637Z,101286.59
2022-07-29T03:47:16.370Z,101284.44
2022-07-29T03:49:48.441Z,101279.00
2022-07-29T03:52:17.278Z,101287.66
2022-07-29T03:54:45.661Z,101286.13
2022-07-29T03:57:14.514Z,101283.75
2022-07-29T03:59:44.126Z,101285.53
2022-07-29T04:02:14.947Z,101281.84
2022-07-29T04:04:45.870Z,101269.56
2022-07-29T04:07:14.688Z,101273.41
2022-07-29T04:09:43.696Z,101273.75
2022-07-29T04:12:12.284Z,101273.28
2022-07-29T04:14:40.473Z,101267.44
2022-07-29T04:17:08.799Z,101269.97
2022-07-29T04:19:38.407Z,101267.59
2022-07-29T04:22:06.605Z,101272.97
2022-07-29T04:24:34.758Z,101266.53
2022-07-29T04:27:02.907Z,101271.31
2022-07-29T04:29:31.472Z,101260.44
2022-07-29T04:31:59.637Z,101273.69
2022-07-29T04:34:28.280Z,101273.28
2022-07-29T04:36:58.067Z,101282.03
2022-07-29T04:39:27.261Z,101272.22
2022-07-29T04:41:58.975Z,101283.72
2022-07-29T04:44:28.583Z,101276.69
2022-07-29T04:46:58.585Z,101274.53
2022-07-29T04:49:27.019Z,101275.09
2022-07-29T04:51:55.694Z,101284.06
2022-07-29T04:54:25.648Z,101278.19
2022-07-29T04:56:54.637Z,101278.84
2022-07-29T04:59:22.959Z,101275.19
2022-07-29T05:01:51.128Z,101275.84
2022-07-29T05:04:19.971Z,101280.31
2022-07-29T05:06:49.905Z,101280.88
2022-07-29T05:09:18.119Z,101284.06
2022-07-29T05:11:47.616Z,101286.97
2022-07-29T05:14:16.176Z,101286.88
2022-07-29T05:16:44.563Z,101289.50
2022-07-29T05:19:14.573Z,101284.41
2022-07-29T05:21:43.305Z,101285.75
2022-07-29T05:24:11.542Z,101276.69
2022-07-29T05:26:39.984Z,101287.97
2022-07-29T05:29:44.221Z,101285.81
2022-07-29T05:32:06.750Z,101276.56
2022-07-29T05:34:35.042Z,101274.84
2022-07-29T05:37:03.290Z,101279.03
2022-07-29T05:39:47.359Z,101275.44
2022-07-29T05:42:19.149Z,101278.28
2022-07-29T05:44:48.391Z,101278.53
2022-07-29T05:47:17.962Z,101274.09
2022-07-29T05:49:47.041Z,101271.25
2022-07-29T05:52:15.373Z,101277.44
2022-07-29T05:54:43.852Z,101269.22
2022-07-29T05:57:17.575Z,101278.97
2022-07-29T05:59:45.921Z,101271.09
2022-07-29T06:02:14.141Z,101271.34
2022-07-29T06:04:43.772Z,101270.16
2022-07-29T06:07:12.332Z,101271.03
2022-07-29T06:09:40.627Z,101268.03
2022-07-29T06:12:09.102Z,101259.66
2022-07-29T06:14:38.859Z,101270.94
2022-07-29T06:17:07.436Z,101271.38
2022-07-29T06:19:37.211Z,101271.03
2022-07-29T06:22:06.840Z,101276.06
2022-07-29T06:24:35.029Z,101279.47
2022-07-29T06:27:03.274Z,101268.94
2022-07-29T06:29:31.725Z,101286.00
2022-07-29T06:31:59.884Z,101281.69
2022-07-29T06:34:28.166Z,101276.78
2022-07-29T06:36:56.514Z,101280.91
2022-07-29T06:39:26.144Z,101274.78
2022-07-29T06:41:54.980Z,101277.06
2022-07-29T06:44:26.664Z,101286.09
2022-07-29T06:46:55.749Z,101289.38
2022-07-29T06:49:25.367Z,101284.66
2022-07-29T06:51:53.757Z,101295.13
2022-07-29T06:54:22.648Z,101293.69
2022-07-29T06:56:52.337Z,101289.91
2022-07-29T06:59:26.246Z,101281.31
2022-07-29T07:01:59.046Z,101291.28
2022-07-29T07:04:27.236Z,101281.66
2022-07-29T07:06:56.559Z,101277.59
2022-07-29T07:09:24.693Z,101286.41
2022-07-29T07:12:09.854Z,101290.06
2022-07-29T07:14:38.033Z,101281.66
2022-07-29T07:17:07.956Z,101286.16
2022-07-29T07:19:36.229Z,101279.03
2022-07-29T07:22:04.408Z,101271.94
2022-07-29T07:24:33.062Z,101274.59
2022-07-29T07:27:01.228Z,101288.47
2022-07-29T07:29:30.806Z,101288.66
2022-07-29T07:32:01.321Z,101290.69
2022-07-29T07:34:31.013Z,101295.69
2022-07-29T07:36:59.262Z,101300.13
2022-07-29T07:39:27.846Z,101288.84
2022-07-29T07:41:56.050Z,101291.09
2022-07-29T07:44:24.540Z,101292.66
2022-07-29T07:46:54.684Z,101285.63
2022-07-29T07:49:23.196Z,101289.53
2022-07-29T07:51:51.547Z,101282.72
2022-07-29T07:54:20.880Z,101298.19
2022-07-29T07:56:53.126Z,101279.66
2022-07-29T07:59:21.999Z,101285.16
2022-07-29T08:01:56.187Z,101295.69
2022-07-29T08:04:28.737Z,101291.84
2022-07-29T08:06:58.022Z,101291.25
2022-07-29T08:09:30.343Z,101279.38
2022-07-29T08:11:59.851Z,101286.56
2022-07-29T08:14:28.034Z,101291.88
2022-07-29T08:16:56.234Z,101288.50
2022-07-29T08:19:26.133Z,101308.56
2022-07-29T08:21:54.904Z,101293.25
2022-07-29T08:24:40.745Z,101294.19
2022-07-29T08:27:26.893Z,101297.69
2022-07-29T08:29:57.623Z,101300.59
2022-07-29T08:32:50.890Z,101298.97
2022-07-29T08:35:15.333Z,101298.53
2022-07-29T08:37:43.467Z,101307.06
2022-07-29T08:40:13.503Z,101306.88
2022-07-29T08:42:41.911Z,101306.56
2022-07-29T08:45:10.988Z,101304.81
2022-07-29T08:47:41.352Z,101307.59
2022-07-29T08:50:11.247Z,101303.28
2022-07-29T08:52:42.576Z,101306.84
2022-07-29T08:55:12.082Z,101304.69
2022-07-29T08:57:50.793Z,101296.16
2022-07-29T09:00:20.445Z,101293.03
2022-07-29T09:02:53.186Z,101293.84
2022-07-29T09:05:21.998Z,101296.72
2022-07-29T09:07:52.217Z,101296.69
2022-07-29T09:10:20.397Z,101299.13
2022-07-29T09:12:49.749Z,101294.81
2022-07-29T09:15:19.574Z,101292.94
2022-07-29T09:17:48.944Z,101292.63
2022-07-29T09:20:19.827Z,101299.06
2022-07-29T09:22:50.509Z,101294.81
2022-07-29T09:28:13.946Z,101298.66
2022-07-29T09:30:53.059Z,101291.72
2022-07-29T09:33:22.112Z,101290.47
2022-07-29T09:36:01.853Z,101288.72
2022-07-29T09:38:30.390Z,101280.69
2022-07-29T09:40:59.895Z,101279.91
2022-07-29T09:43:35.959Z,101271.06
2022-07-29T09:46:14.708Z,101273.88
2022-07-29T09:48:42.948Z,101272.38
2022-07-29T09:51:21.539Z,101262.25
2022-07-29T09:53:53.033Z,101270.91
2022-07-29T09:56:21.958Z,101262.66
2022-07-29T09:59:07.808Z,101261.28
2022-07-29T10:01:36.921Z,101272.78
2022-07-29T10:04:05.475Z,101264.47
2022-07-29T10:06:33.732Z,101258.53
2022-07-29T10:09:11.407Z,101266.63
2022-07-29T10:11:49.273Z,101263.31
2022-07-29T10:14:19.935Z,101260.56
2022-07-29T10:16:48.536Z,101260.53
2022-07-29T10:19:16.924Z,101259.88
2022-07-29T10:21:45.846Z,101257.50
2022-07-29T10:24:14.929Z,101251.41
2022-07-29T10:26:43.922Z,101254.34
2022-07-29T10:29:12.143Z,101261.31
2022-07-29T10:31:50.581Z,101249.44
2022-07-29T10:34:32.867Z,101255.41
2022-07-29T10:37:10.560Z,101246.25
2022-07-29T10:39:54.271Z,101248.09
2022-07-29T10:42:34.101Z,101254.88
2022-07-29T10:45:04.560Z,101246.94
2022-07-29T10:47:35.067Z,101243.47
2022-07-29T10:50:05.760Z,101236.44
2022-07-29T10:52:57.567Z,101242.53
2022-07-29T10:55:37.659Z,101238.84
2022-07-29T10:58:18.061Z,101250.06
2022-07-29T11:00:49.369Z,101250.97
2022-07-29T11:03:50.790Z,101242.03
2022-07-29T11:06:26.682Z,101236.81
2022-07-29T11:09:18.094Z,101230.41
2022-07-29T11:11:51.502Z,101230.41
2022-07-29T11:14:20.093Z,101230.75
2022-07-29T11:17:07.385Z,101229.78
2022-07-29T11:19:40.271Z,101222.53
2022-07-29T11:22:11.428Z,101241.13
2022-07-29T11:24:49.309Z,101223.66
2022-07-29T11:27:21.160Z,101234.53
2022-07-29T11:29:52.156Z,101221.56
2022-07-29T11:32:23.640Z,101215.72
2022-07-29T11:35:17.258Z,101220.31
2022-07-29T11:37:52.830Z,101220.00
2022-07-29T11:40:25.990Z,101207.75
2022-07-29T11:42:55.055Z,101222.97
2022-07-29T11:45:41.477Z,101203.84
2022-07-29T11:48:30.009Z,101215.28
2022-07-29T11:51:03.071Z,101208.81
2022-07-29T11:53:33.029Z,101209.16
2022-07-29T11:56:02.667Z,101200.19
2022-07-29T11:58:32.756Z,101191.66
2022-07-29T12:01:04.656Z,101188.72
2022-07-29T12:03:35.896Z,101191.06
2022-07-29T12:06:15.022Z,101192.41
2022-07-29T12:08:45.076Z,101192.50
2022-07-29T12:11:22.450Z,101183.97
2022-07-29T12:13:52.249Z,101178.41
2022-07-29T12:16:25.722Z,101175.75
2022-07-29T12:19:02.473Z,101169.81
2022-07-29T12:21:53.792Z,101171.78
2022-07-29T12:24:26.510Z,101171.94
2022-07-29T12:26:57.080Z,101177.97
2022-07-29T12:29:35.155Z,101167.50
2022-07-29T12:32:05.376Z,101166.16
2022-07-29T12:34:34.327Z,101163.97
2022-07-29T12:37:04.467Z,101169.47
2022-07-29T12:39:32.838Z,101159.19
2022-07-29T12:42:03.853Z,101156.34
2022-07-29T12:44:46.350Z,101144.78
2022-07-29T12:47:14.596Z,101150.22
2022-07-29T12:49:43.099Z,101142.19
2022-07-29T12:52:30.259Z,101144.78
2022-07-29T12:54:58.854Z,101146.84
2022-07-29T12:57:27.634Z,101146.03
2022-07-29T13:00:08.680Z,101147.47
2022-07-29T13:02:37.933Z,101155.72
2022-07-29T13:05:09.206Z,101142.47
2022-07-29T13:07:55.805Z,101145.59
2022-07-29T13:10:25.846Z,101141.03
2022-07-29T13:13:04.628Z,101133.22
2022-07-29T13:15:33.638Z,101138.50
2022-07-29T13:18:01.947Z,101127.63
2022-07-29T13:20:31.678Z,101136.84
2022-07-29T13:23:02.397Z,101123.16
2022-07-29T13:25:32.633Z,101129.81
2022-07-29T13:28:01.719Z,101133.69
2022-07-29T13:30:30.153Z,101129.88
2022-07-29T13:32:58.380Z,101126.53
2022-07-29T13:35:26.835Z,101113.94
2022-07-29T13:37:55.084Z,101115.00
2022-07-29T13:40:24.707Z,101108.69
2022-07-29T13:42:52.866Z,101111.59
2022-07-29T13:45:21.046Z,101123.28
2022-07-29T13:47:49.581Z,101113.81
2022-07-29T13:50:17.859Z,101114.50
2022-07-29T13:52:45.987Z,101104.41
2022-07-29T13:55:14.297Z,101106.63
2022-07-29T13:57:43.832Z,101110.63
2022-07-29T14:00:13.021Z,101103.13
2022-07-29T14:02:41.166Z,101098.56
2022-07-29T14:05:10.786Z,101098.78
2022-07-29T14:07:40.393Z,101095.84
2022-07-29T14:10:09.227Z,101096.16
2022-07-29T14:12:37.363Z,101098.22
2022-07-29T14:15:07.824Z,101110.16
2022-07-29T14:17:36.192Z,101082.72
2022-07-29T14:20:05.072Z,101093.63
2022-07-29T14:22:36.074Z,101092.28
2022-07-29T14:25:14.671Z,101082.25
2022-07-29T14:27:44.441Z,101083.59
2022-07-29T14:30:15.029Z,101079.09
2022-07-29T14:32:43.377Z,101085.00
2022-07-29T14:35:11.726Z,101068.28
2022-07-29T14:37:41.430Z,101072.28
2022-07-29T14:40:11.273Z,101074.69
2022-07-29T14:42:40.042Z,101076.41
2022-07-29T14:45:09.855Z,101070.47
2022-07-29T14:47:40.484Z,101079.84
2022-07-29T14:50:09.662Z,101065.13
2022-07-29T14:52:38.353Z,101077.53
2022-07-29T14:55:16.696Z,101072.91
2022-07-29T14:57:48.105Z,101062.50
2022-07-29T15:00:16.704Z,101066.91
2022-07-29T15:03:01.475Z,101060.56
2022-07-29T15:05:31.089Z,101075.81
2022-07-29T15:07:59.882Z,101073.84
2022-07-29T15:10:28.190Z,101064.34
2022-07-29T15:12:56.725Z,101060.06
2022-07-29T15:15:25.072Z,101074.56
2022-07-29T15:17:54.589Z,101069.16
2022-07-29T15:20:26.113Z,101065.06
2022-07-29T15:22:56.350Z,101057.84
2022-07-29T15:25:24.597Z,101046.72
2022-07-29T15:27:55.667Z,101041.13
2022-07-29T15:30:30.922Z,101035.75
2022-07-29T15:33:03.371Z,101042.47
2022-07-29T15:35:31.620Z,101038.63
2022-07-29T15:37:59.877Z,101041.53
2022-07-29T15:40:28.031Z,101042.22
2022-07-29T15:42:56.492Z,101033.25
2022-07-29T15:45:24.885Z,101045.56
2022-07-29T15:47:53.099Z,101035.88
2022-07-29T15:50:22.731Z,101038.72
2022-07-29T15:52:50.885Z,101034.31
2022-07-29T15:55:19.189Z,101027.84
2022-07-29T15:57:47.396Z,101027.66
2022-07-29T16:00:17.499Z,101032.28
2022-07-29T16:02:46.163Z,101026.31
2022-07-29T16:05:14.314Z,101025.38
2022-07-29T16:07:43.812Z,101028.91
2022-07-29T16:10:12.292Z,101023.13
2022-07-29T16:12:40.437Z,101015.06
2022-07-29T16:15:10.839Z,101017.06
2022-07-29T16:17:39.323Z,101011.16
2022-07-29T16:20:08.761Z,101014.19
2022-07-29T16:22:38.707Z,101007.03
2022-07-29T16:25:09.573Z,101009.81
2022-07-29T16:27:38.269Z,101000.00
2022-07-29T16:30:09.570Z,101007.00
2022-07-29T16:32:38.057Z,101000.72
2022-07-29T16:35:07.382Z,101004.09
2022-07-29T16:37:37.163Z,100999.06
2022-07-29T16:40:07.120Z,100996.09
2022-07-29T16:42:46.515Z,101006.19
2022-07-29T16:45:15.762Z,101003.06
2022-07-29T16:47:44.280Z,100985.06
2022-07-29T16:50:12.562Z,101005.38
2022-07-29T16:52:40.930Z,100996.78
2022-07-29T16:55:09.505Z,100988.16
2022-07-29T16:57:39.318Z,100991.84
2022-07-29T17:00:08.785Z,100991.06
2022-07-29T17:02:38.655Z,100999.94
2022-07-29T17:05:07.873Z,100991.13
2022-07-29T17:07:36.140Z,100989.19
2022-07-29T17:10:07.963Z,101002.09
2022-07-29T17:12:39.891Z,100997.03
2022-07-29T17:15:10.444Z,100990.72
2022-07-29T17:17:55.158Z,100986.91
2022-07-29T17:20:26.693Z,100990.94
2022-07-29T17:22:55.135Z,100993.84
2022-07-29T17:25:24.741Z,100995.25
2022-07-29T17:28:00.496Z,100989.25
2022-07-29T17:30:29.505Z,100993.78
2022-07-29T17:32:57.873Z,100982.78
2022-07-29T17:35:43.703Z,100994.53
2022-07-29T17:38:11.908Z,100991.63
2022-07-29T17:40:40.058Z,100994.31
2022-07-29T17:43:10.180Z,100990.97
2022-07-29T17:45:49.829Z,100992.34
2022-07-29T17:48:19.264Z,100986.47
2022-07-29T17:50:48.567Z,100990.34
2022-07-29T17:53:17.065Z,100985.88
2022-07-29T17:55:46.230Z,100994.84
2022-07-29T17:58:16.793Z,101006.03
2022-07-29T18:00:45.111Z,101007.78
2022-07-29T18:03:13.489Z,101001.66
2022-07-29T18:05:42.434Z,101007.72
2022-07-29T18:08:11.007Z,100995.41
2022-07-29T18:10:39.342Z,100998.03
2022-07-29T18:13:07.834Z,101006.19
2022-07-29T18:15:37.518Z,101002.25
2022-07-29T18:18:05.869Z,101008.00
2022-07-29T18:20:34.827Z,101004.38
2022-07-29T18:23:03.325Z,101009.34
2022-07-29T18:25:31.506Z,101008.00
2022-07-29T18:28:01.054Z,101009.06
2022-07-29T18:30:29.442Z,101010.94
2022-07-29T18:33:20.104Z,101016.06
2022-07-29T18:35:48.301Z,101011.63
2022-07-29T18:38:16.713Z,101020.97
2022-07-29T18:40:45.806Z,101021.69
2022-07-29T18:43:14.541Z,101019.50
2022-07-29T18:45:42.753Z,101019.13
2022-07-29T18:48:13.145Z,101022.56
2022-07-29T18:50:41.982Z,101027.16
2022-07-29T18:53:10.301Z,101033.41
2022-07-29T18:55:38.550Z,101031.41
2022-07-29T18:58:06.804Z,101035.97
2022-07-29T19:00:35.362Z,101032.25
2022-07-29T19:03:04.274Z,101042.72
2022-07-29T19:05:34.230Z,101039.84
2022-07-29T19:08:02.472Z,101038.97
2022-07-29T19:10:31.253Z,101045.41
2022-07-29T19:12:59.439Z,101040.34
2022-07-29T19:15:28.007Z,101052.53
2022-07-29T19:18:00.825Z,101041.53
2022-07-29T19:20:29.429Z,101047.06
2022-07-29T19:22:59.021Z,101054.00
2022-07-29T19:25:27.305Z,101054.34
2022-07-29T19:27:55.488Z,101050.25
2022-07-29T19:30:23.878Z,101064.59
2022-07-29T19:32:52.179Z,101065.03
2022-07-29T19:35:28.249Z,101062.34
2022-07-29T19:37:58.777Z,101058.38
2022-07-29T19:40:29.516Z,101064.28
2022-07-29T19:42:57.972Z,101069.34
2022-07-29T19:45:26.570Z,101064.34
2022-07-29T19:48:00.736Z,101062.34
2022-07-29T19:50:29.769Z,101063.81
2022-07-29T19:52:58.329Z,101057.72
2022-07-29T19:55:28.742Z,101058.06
2022-07-29T19:57:58.920Z,101058.69
2022-07-29T20:00:28.446Z,101061.66
2022-07-29T20:02:58.861Z,101066.72
2022-07-29T20:07:56.935Z,101063.31
2022-07-29T20:10:25.354Z,101064.56
2022-07-29T20:12:55.301Z,101054.38
2022-07-29T20:15:23.965Z,101059.72
2022-07-29T20:17:56.761Z,101063.13
2022-07-29T20:20:26.600Z,101060.81
2022-07-29T20:22:55.252Z,101061.03
2022-07-29T20:25:23.842Z,101060.91
2022-07-29T20:27:53.135Z,101070.63
2022-07-29T20:30:23.336Z,101071.66
2022-07-29T20:32:52.301Z,101072.78
2022-07-29T20:35:22.339Z,101072.94
2022-07-29T20:37:56.059Z,101072.53
2022-07-29T20:40:25.475Z,101072.59
2022-07-29T20:42:53.832Z,101074.91
2022-07-29T20:45:23.972Z,101074.59
2022-07-29T20:47:52.670Z,101076.69
2022-07-29T20:50:24.012Z,101075.81
2022-07-29T20:52:53.211Z,101082.44
2022-07-29T20:55:21.996Z,101077.81
2022-07-29T20:57:50.523Z,101083.91
2022-07-29T21:00:19.073Z,101083.25
2022-07-29T21:02:48.689Z,101082.38
2022-07-29T21:05:17.082Z,101082.69
2022-07-29T21:07:45.264Z,101086.59
2022-07-29T21:10:14.315Z,101087.84
2022-07-29T21:12:42.959Z,101093.13
2022-07-29T21:15:13.544Z,101086.19
2022-07-29T21:17:46.764Z,101086.50
2022-07-29T21:20:17.944Z,101082.50
2022-07-29T21:22:46.757Z,101087.03
2022-07-29T21:25:15.059Z,101081.44
2022-07-29T21:28:00.802Z,101081.47
2022-07-29T21:30:29.003Z,101086.88
2022-07-29T21:32:57.231Z,101092.66
2022-07-29T21:36:01.887Z,101088.16
2022-07-29T21:38:16.326Z,101088.28
2022-07-29T21:40:45.088Z,101091.13
2022-07-29T21:43:13.802Z,101085.47
2022-07-29T21:45:43.729Z,101092.03
2022-07-29T21:48:11.954Z,101092.72
2022-07-29T21:50:41.468Z,101088.38
2022-07-29T21:53:11.132Z,101088.66
2022-07-29T21:55:42.294Z,101098.28
2022-07-29T21:58:11.199Z,101095.31
2022-07-29T22:00:39.419Z,101090.81
2022-07-29T22:03:08.682Z,101084.72
2022-07-29T22:05:36.965Z,101087.84
2022-07-29T22:08:06.730Z,101090.22
2022-07-29T22:10:35.652Z,101089.09
2022-07-29T22:13:04.101Z,101092.63
2022-07-29T22:15:32.504Z,101084.84
2022-07-29T22:18:00.884Z,101082.16
2022-07-29T22:20:29.553Z,101081.72
2022-07-29T22:22:57.799Z,101087.53
2022-07-29T22:25:27.308Z,101082.59
2022-07-29T22:27:55.460Z,101086.69
2022-07-29T22:30:23.845Z,101092.34
2022-07-29T22:32:52.416Z,101083.28
2022-07-29T22:35:20.627Z,101084.13
2022-07-29T22:37:48.769Z,101081.28
2022-07-29T22:40:16.939Z,101076.19
2022-07-29T22:42:46.428Z,101076.47
2022-07-29T22:45:14.628Z,101074.22
2022-07-29T22:47:47.899Z,101068.84
2022-07-29T22:50:17.312Z,101069.41
2022-07-29T22:52:45.925Z,101071.81
2022-07-29T22:55:14.402Z,101070.41
2022-07-29T22:57:42.675Z,101078.59
2022-07-29T23:00:14.180Z,101067.44
2022-07-29T23:02:42.454Z,101061.19
2022-07-29T23:05:11.295Z,101059.78
2022-07-29T23:07:39.519Z,101050.84
2022-07-29T23:10:08.631Z,101053.56
2022-07-29T23:12:37.234Z,101051.03
2022-07-29T23:15:06.014Z,101053.28
2022-07-29T23:17:36.276Z,101045.66
2022-07-29T23:20:07.670Z,101047.06
2022-07-29T23:22:36.101Z,101048.47
2022-07-29T23:25:06.202Z,101050.47
2022-07-29T23:27:34.506Z,101051.03
2022-07-29T23:30:02.946Z,101047.31
2022-07-29T23:32:31.213Z,101050.72
2022-07-29T23:35:00.745Z,101050.13
2022-07-29T23:37:28.889Z,101039.66
2022-07-29T23:39:57.252Z,101043.19
2022-07-29T23:42:25.426Z,101046.19
2022-07-29T23:44:53.608Z,101037.69
2022-07-29T23:47:22.697Z,101041.53
2022-07-29T23:49:50.897Z,101041.34
2022-07-29T23:52:20.394Z,101035.09
2022-07-29T23:54:48.576Z,101037.50
2022-07-29T23:57:16.722Z,101048.06
2022-07-29T23:59:44.870Z,101047.50
